Portada
METAR-TAF:

METAR-TAF

Aeropuertos :

Johannesburgo, Sudáfrica

latitud: 26-09S, longitud: 28-00E, altitud: 1626 m

Observación

El informe se hizo hace 56 minutos, a las 10:00 UTC
Viento 3 kt del este-noreste
Temperatura 17°C
Humedad 36%
Presión 1034 hPa

METAR: FAJB 241000Z AUTO 06003KT //// // ////// 17/02 Q1034

Hora: 12:56 (10:56 UTC)


TAF: falta

Observaciones y pronósticos meteorológicos de más de 4000 aeropuertos (mensajes METAR y TAF).

Los puntos amarillos y rojos representan las estaciones disponibles.

Ponga el ratón en el punto deseado para ver el nombre de la estación.

Haga clic para ver las observaciones y los pronósticos meteorológicos.

Para cambiar el mapa : haga clic en los botones verdes con una cruz de color negro para hacer un zoom, en el botón verde con un guión para alejar o en las flechas verdes para mapas adyacentes.


METAR-TAF: